Time;durP1;ratioP1;P1;durP2;ratioP2;P2;SDS_P1;SDS_P2;PMS_P1;PMS_P2;Temp;Humidity;BMP_temperature;BMP_pressure;BME280_temperature;BME280_humidity;BME280_pressure;Samples;Min_cycle;Max_cycle;Signal;HPM_P1;HPM_P2
2021/07/31 00:01:38;;;;;;;6.50;2.20;;;20.90;78.80;;;;;;4263818;27;20050;-72
2021/07/31 00:03:42;;;;;;;13.38;2.42;;;20.80;79.40;;;;;;4264680;27;20066;-75
2021/07/31 00:06:03;;;;;;;6.80;2.50;;;20.60;80.00;;;;;;4265176;27;20077;-72
2021/07/31 00:08:06;;;;;;;7.47;2.25;;;20.70;79.00;;;;;;4265117;27;20051;-74
2021/07/31 00:10:10;;;;;;;7.18;2.28;;;20.70;79.50;;;;;;4265119;27;20061;-73
2021/07/31 00:12:14;;;;;;;10.27;2.42;;;20.70;79.80;;;;;;4264642;27;20051;-73
2021/07/31 00:14:17;;;;;;;12.60;2.75;;;20.70;80.00;;;;;;4265027;27;20051;-74
2021/07/31 00:16:21;;;;;;;10.00;2.40;;;20.70;79.30;;;;;;4264895;27;20065;-73
2021/07/31 00:18:24;;;;;;;10.10;2.47;;;20.70;79.70;;;;;;4265009;27;20054;-74
2021/07/31 00:20:27;;;;;;;8.77;2.40;;;20.70;79.60;;;;;;4264799;27;20418;-74
2021/07/31 00:22:30;;;;;;;7.32;1.98;;;20.60;79.70;;;;;;4264777;27;20057;-75
2021/07/31 00:24:33;;;;;;;16.13;2.33;;;20.50;79.70;;;;;;4264921;27;20051;-74
2021/07/31 00:26:36;;;;;;;8.43;2.38;;;20.60;79.60;;;;;;4264821;27;20065;-80
2021/07/31 00:28:40;;;;;;;8.25;2.13;;;20.50;80.50;;;;;;4264870;27;20104;-75
2021/07/31 00:30:43;;;;;;;8.48;2.13;;;20.50;79.60;;;;;;4264885;27;20142;-72
2021/07/31 00:32:46;;;;;;;8.45;2.40;;;20.60;80.10;;;;;;4264528;27;20054;-72
2021/07/31 00:34:49;;;;;;;6.80;2.10;;;20.60;80.40;;;;;;4263340;27;20055;-73
2021/07/31 00:36:52;;;;;;;6.63;2.05;;;20.60;80.10;;;;;;4264603;27;20050;-73
2021/07/31 00:38:55;;;;;;;5.85;2.05;;;20.40;80.60;;;;;;4264506;27;20072;-75
2021/07/31 00:40:58;;;;;;;7.13;2.05;;;20.40;80.50;;;;;;4264498;27;20068;-73
2021/07/31 00:43:04;;;;;;;5.68;1.98;;;20.30;80.80;;;;;;4264734;27;20055;-72
2021/07/31 00:45:10;;;;;;;7.95;2.30;;;20.30;80.50;;;;;;4263612;27;20107;-73
2021/07/31 00:47:14;;;;;;;7.97;2.17;;;20.40;80.60;;;;;;4264843;27;20066;-72
2021/07/31 00:49:17;;;;;;;12.90;2.37;;;20.40;80.20;;;;;;4264508;27;20422;-75
2021/07/31 00:51:20;;;;;;;7.03;2.17;;;20.20;81.60;;;;;;4264218;27;20596;-74
2021/07/31 00:53:23;;;;;;;5.93;1.95;;;20.20;81.50;;;;;;4264172;27;20047;-74
2021/07/31 00:55:28;;;;;;;8.82;2.30;;;20.20;82.10;;;;;;4264316;27;20054;-75
2021/07/31 00:57:34;;;;;;;8.38;2.03;;;20.20;81.70;;;;;;4264402;27;20050;-75
2021/07/31 00:59:37;;;;;;;6.07;2.00;;;20.20;81.90;;;;;;4264316;27;20051;-75
2021/07/31 01:01:42;;;;;;;7.97;2.00;;;20.20;81.80;;;;;;4264087;27;20051;-74
2021/07/31 01:03:46;;;;;;;5.57;1.80;;;20.10;82.10;;;;;;4264128;27;20064;-75
2021/07/31 01:05:49;;;;;;;11.68;2.00;;;20.20;81.70;;;;;;4264209;27;20073;-75
2021/07/31 01:07:52;;;;;;;4.80;1.80;;;20.10;82.20;;;;;;4264049;27;20054;-74
2021/07/31 01:09:56;;;;;;;10.10;2.05;;;20.20;81.90;;;;;;4263922;27;20057;-75
2021/07/31 01:11:59;;;;;;;7.57;2.13;;;20.00;83.40;;;;;;4264059;27;20050;-74
2021/07/31 01:14:02;;;;;;;7.25;2.05;;;20.00;82.40;;;;;;4262830;27;20053;-74
2021/07/31 01:16:08;;;;;;;4.78;1.75;;;20.10;82.70;;;;;;4263845;27;20205;-75
2021/07/31 01:18:12;;;;;;;12.02;2.17;;;20.20;82.80;;;;;;4263816;27;20071;-75
2021/07/31 01:20:15;;;;;;;7.18;2.50;;;20.00;83.50;;;;;;4264013;27;20053;-74
2021/07/31 01:22:20;;;;;;;6.03;2.45;;;20.00;83.00;;;;;;4263815;27;20051;-75
2021/07/31 01:24:23;;;;;;;5.45;2.17;;;20.10;83.20;;;;;;4262320;27;20051;-74
2021/07/31 01:26:26;;;;;;;8.40;2.10;;;20.00;83.10;;;;;;4263989;27;20059;-75
2021/07/31 01:28:29;;;;;;;9.10;2.45;;;20.00;83.70;;;;;;4263744;27;20532;-74
2021/07/31 01:30:32;;;;;;;8.90;2.15;;;20.00;83.90;;;;;;4263552;27;20058;-75
2021/07/31 01:32:35;;;;;;;7.60;2.20;;;20.10;83.60;;;;;;4263614;27;20055;-72
2021/07/31 01:34:38;;;;;;;9.93;2.20;;;20.00;84.40;;;;;;4263582;27;20050;-72
2021/07/31 01:36:41;;;;;;;7.65;1.88;;;20.00;83.60;;;;;;4263783;27;20047;-75
2021/07/31 01:38:46;;;;;;;10.00;2.35;;;20.10;83.80;;;;;;4263700;27;20047;-72
2021/07/31 01:40:49;;;;;;;9.65;2.40;;;20.00;85.50;;;;;;4263639;27;20057;-74
2021/07/31 01:42:52;;;;;;;6.68;2.67;;;19.90;85.00;;;;;;4263586;27;20050;-75
2021/07/31 01:44:55;;;;;;;10.77;2.17;;;19.90;85.50;;;;;;4263541;27;20046;-75
2021/07/31 01:46:58;;;;;;;6.40;2.70;;;19.70;86.50;;;;;;4263536;27;20174;-72
2021/07/31 01:49:01;;;;;;;9.10;2.35;;;19.60;87.60;;;;;;4263457;27;20050;-75
2021/07/31 01:51:04;;;;;;;10.40;2.50;;;19.60;87.40;;;;;;4263159;27;20069;-72
2021/07/31 01:53:07;;;;;;;11.68;2.92;;;19.70;87.40;;;;;;4263632;27;20055;-73
2021/07/31 01:55:13;;;;;;;9.85;2.50;;;19.70;87.20;;;;;;4263442;27;20054;-72
2021/07/31 01:57:16;;;;;;;10.65;2.92;;;19.70;87.30;;;;;;4263534;27;20057;-72
2021/07/31 01:59:19;;;;;;;5.85;2.17;;;19.70;87.30;;;;;;4263432;27;20058;-72
2021/07/31 02:01:22;;;;;;;7.80;2.97;;;19.70;87.30;;;;;;4263411;27;20430;-75
2021/07/31 02:03:26;;;;;;;8.57;2.42;;;19.70;87.60;;;;;;4263482;27;20055;-74
2021/07/31 02:05:29;;;;;;;6.40;2.55;;;19.70;88.10;;;;;;4262988;27;20046;-73
2021/07/31 02:07:32;;;;;;;9.85;2.50;;;19.40;88.60;;;;;;4263317;27;20074;-75
2021/07/31 02:09:35;;;;;;;10.43;2.70;;;19.50;88.20;;;;;;4263101;27;20058;-74
2021/07/31 02:11:40;;;;;;;8.30;2.42;;;19.50;88.30;;;;;;4262974;27;20054;-75
2021/07/31 02:13:43;;;;;;;9.60;2.95;;;19.50;88.90;;;;;;4262843;27;20051;-75
2021/07/31 02:15:46;;;;;;;10.60;2.70;;;19.50;88.80;;;;;;4263171;27;20051;-74
2021/07/31 02:17:49;;;;;;;8.27;2.72;;;19.60;88.40;;;;;;4263263;27;20046;-72
2021/07/31 02:19:52;;;;;;;8.18;2.50;;;19.50;89.50;;;;;;4263227;27;20050;-74
2021/07/31 02:21:55;;;;;;;7.00;2.67;;;19.50;88.60;;;;;;4263016;27;20049;-74
2021/07/31 02:23:58;;;;;;;8.65;2.50;;;19.50;89.80;;;;;;4262984;27;20047;-74
2021/07/31 02:26:01;;;;;;;8.05;2.47;;;19.40;90.00;;;;;;4261414;27;20057;-74
2021/07/31 02:28:06;;;;;;;9.02;2.60;;;19.40;90.00;;;;;;4263200;27;20054;-74
2021/07/31 02:30:11;;;;;;;7.80;2.75;;;19.50;89.20;;;;;;4262945;27;20058;-74
2021/07/31 02:32:13;;;;;;;9.75;2.60;;;19.60;88.60;;;;;;4262835;27;20055;-74
2021/07/31 02:34:16;;;;;;;10.82;2.35;;;19.70;88.30;;;;;;4263185;27;20055;-74
2021/07/31 02:36:19;;;;;;;7.30;2.33;;;19.60;89.40;;;;;;4262999;27;20050;-74
2021/07/31 02:38:22;;;;;;;8.98;2.55;;;19.60;89.70;;;;;;4263198;27;20057;-74
2021/07/31 02:40:25;;;;;;;8.98;2.63;;;19.60;88.40;;;;;;4263034;27;20054;-74
2021/07/31 02:42:28;;;;;;;12.27;3.00;;;19.60;88.90;;;;;;4262970;27;20057;-74
2021/07/31 02:44:34;;;;;;;12.35;3.20;;;19.50;89.00;;;;;;4262705;27;20057;-74
2021/07/31 02:46:37;;;;;;;11.75;2.85;;;19.60;88.10;;;;;;4262914;27;20398;-74
2021/07/31 02:48:40;;;;;;;8.68;2.50;;;19.60;89.60;;;;;;4262885;27;20616;-74
2021/07/31 02:50:43;;;;;;;10.88;1.88;;;19.60;88.30;;;;;;4262663;27;20473;-74
2021/07/31 02:52:46;;;;;;;8.35;2.60;;;19.60;88.70;;;;;;4262810;27;20063;-74
2021/07/31 02:54:50;;;;;;;7.60;2.58;;;19.70;88.30;;;;;;4263009;27;20047;-75
2021/07/31 02:56:53;;;;;;;8.32;2.72;;;19.70;88.80;;;;;;4262845;27;20512;-74
2021/07/31 02:58:56;;;;;;;11.82;2.83;;;19.70;89.20;;;;;;4262795;27;20051;-73
2021/07/31 03:01:04;;;;;;;7.60;2.35;;;19.70;88.70;;;;;;4262736;27;20405;-74
2021/07/31 03:03:07;;;;;;;9.35;2.42;;;19.60;89.20;;;;;;4262575;27;20054;-74
2021/07/31 03:05:10;;;;;;;10.15;2.53;;;19.70;88.50;;;;;;4262874;27;20058;-74
2021/07/31 03:07:13;;;;;;;8.13;2.28;;;19.70;88.80;;;;;;4262909;27;20064;-73
2021/07/31 03:09:16;;;;;;;6.70;2.53;;;19.70;89.00;;;;;;4262588;27;20063;-74
2021/07/31 03:11:19;;;;;;;11.60;3.28;;;19.70;88.90;;;;;;4262642;27;20046;-74
2021/07/31 03:13:23;;;;;;;8.35;2.75;;;19.70;89.70;;;;;;4262503;27;20047;-73
2021/07/31 03:15:26;;;;;;;10.20;3.05;;;19.60;89.60;;;;;;4262585;27;20539;-74
2021/07/31 03:17:30;;;;;;;11.68;2.95;;;19.40;90.30;;;;;;4262547;27;20050;-75
2021/07/31 03:19:34;;;;;;;;;;;19.50;89.90;;;;;;4263187;27;20051;-74
2021/07/31 03:21:36;;;;;;;8.73;2.72;;;19.40;90.40;;;;;;4262800;27;19923;-74
2021/07/31 03:23:41;;;;;;;11.27;2.60;;;19.40;90.50;;;;;;4262691;27;20062;-74
2021/07/31 03:25:44;;;;;;;13.00;3.25;;;19.40;90.10;;;;;;4263148;27;20046;-74
2021/07/31 03:27:47;;;;;;;7.05;2.58;;;19.50;90.00;;;;;;4262781;27;20054;-74
2021/07/31 03:29:50;;;;;;;8.73;2.75;;;19.40;90.20;;;;;;4262556;27;20049;-74
2021/07/31 03:31:53;;;;;;;14.27;2.42;;;19.40;90.40;;;;;;4262448;27;20055;-74
2021/07/31 03:33:58;;;;;;;8.30;2.00;;;19.40;90.10;;;;;;4262705;27;20532;-72
2021/07/31 03:36:01;;;;;;;7.32;2.22;;;19.50;89.80;;;;;;4262703;27;20126;-74
2021/07/31 03:38:04;;;;;;;9.38;2.22;;;19.40;89.60;;;;;;4263867;27;20468;-74
2021/07/31 03:40:08;;;;;;;12.68;2.80;;;19.40;90.40;;;;;;4265376;27;20051;-74
2021/07/31 03:42:11;;;;;;;8.25;2.83;;;19.40;90.30;;;;;;4265628;27;20047;-74
2021/07/31 03:44:14;;;;;;;7.90;2.70;;;19.40;89.70;;;;;;4265108;27;20405;-74
2021/07/31 03:46:17;;;;;;;7.47;2.60;;;19.40;90.30;;;;;;4265514;27;20061;-74
2021/07/31 03:48:20;;;;;;;12.23;2.83;;;19.40;90.20;;;;;;4265370;27;20058;-74
2021/07/31 03:50:24;;;;;;;7.03;2.20;;;19.40;90.00;;;;;;4265236;27;20134;-74
2021/07/31 03:52:27;;;;;;;7.60;2.28;;;19.40;90.10;;;;;;4265321;27;20057;-74
2021/07/31 03:54:32;;;;;;;8.75;2.58;;;19.40;90.30;;;;;;4265400;27;20501;-74
2021/07/31 03:56:35;;;;;;;11.52;2.83;;;19.20;90.80;;;;;;4265336;27;20384;-74
2021/07/31 03:58:38;;;;;;;8.45;2.45;;;19.30;90.90;;;;;;4265241;27;20054;-74
2021/07/31 04:00:41;;;;;;;12.82;2.88;;;19.20;90.90;;;;;;4265198;27;20054;-74
2021/07/31 04:02:44;;;;;;;9.43;2.60;;;19.20;91.10;;;;;;4264960;27;20053;-75
2021/07/31 04:04:48;;;;;;;11.65;2.78;;;19.00;91.50;;;;;;4265032;27;20057;-74
2021/07/31 04:06:52;;;;;;;8.45;2.40;;;18.90;91.50;;;;;;4264838;27;20051;-75
2021/07/31 04:08:55;;;;;;;8.82;2.75;;;19.00;91.90;;;;;;4265191;27;20051;-76
2021/07/31 04:11:02;;;;;;;11.95;2.42;;;18.80;92.00;;;;;;4265235;27;20159;-74
2021/07/31 04:13:05;;;;;;;8.77;2.80;;;18.90;91.90;;;;;;4264710;27;20050;-74
2021/07/31 04:15:09;;;;;;;7.70;2.25;;;18.90;92.00;;;;;;4263696;27;20144;-74
2021/07/31 04:17:12;;;;;;;13.35;3.08;;;19.00;91.80;;;;;;4265122;27;20050;-74
2021/07/31 04:19:15;;;;;;;7.18;2.60;;;18.90;92.20;;;;;;4264821;27;20051;-74
2021/07/31 04:21:21;;;;;;;8.18;2.55;;;18.90;92.20;;;;;;4264974;27;20058;-74
2021/07/31 04:23:25;;;;;;;11.70;3.63;;;19.00;91.80;;;;;;4264895;27;20061;-75
2021/07/31 04:25:28;;;;;;;6.75;2.40;;;19.10;91.70;;;;;;4263447;27;20072;-74
2021/07/31 04:27:33;;;;;;;11.05;2.75;;;19.20;91.70;;;;;;4264748;27;20424;-76
2021/07/31 04:29:36;;;;;;;;;;;19.20;91.30;;;;;;4265170;27;20061;-74
2021/07/31 04:31:39;;;;;;;11.55;3.10;;;19.10;91.90;;;;;;4264849;27;19919;-74
2021/07/31 04:33:43;;;;;;;12.88;3.10;;;19.00;92.10;;;;;;4264666;27;20051;-74
2021/07/31 04:35:47;;;;;;;7.47;2.72;;;18.90;92.80;;;;;;4264861;27;20059;-74
2021/07/31 04:37:50;;;;;;;8.40;2.72;;;18.90;92.60;;;;;;4264727;27;20514;-74
2021/07/31 04:39:54;;;;;;;12.55;2.97;;;18.90;92.30;;;;;;4264767;27;20537;-74
2021/07/31 04:41:57;;;;;;;9.18;2.80;;;19.00;92.30;;;;;;4264538;27;20051;-75
2021/07/31 04:44:00;;;;;;;9.05;2.95;;;19.10;91.80;;;;;;4264474;27;20059;-74
2021/07/31 04:46:03;;;;;;;10.48;3.00;;;19.10;91.90;;;;;;4264704;27;20474;-74
2021/07/31 04:48:06;;;;;;;11.18;3.20;;;19.10;92.00;;;;;;4264560;27;20077;-74
2021/07/31 04:50:13;;;;;;;7.68;2.67;;;19.20;91.60;;;;;;4264825;27;20455;-74
2021/07/31 04:52:16;;;;;;;13.25;2.83;;;19.30;91.30;;;;;;4263019;27;20061;-74
2021/07/31 04:54:19;;;;;;;8.10;2.70;;;19.30;91.70;;;;;;4264493;27;20050;-74
2021/07/31 04:56:23;;;;;;;9.57;3.17;;;19.40;91.60;;;;;;4264480;27;20055;-75
2021/07/31 04:58:26;;;;;;;13.13;3.05;;;19.30;92.10;;;;;;4264433;27;20050;-74
2021/07/31 05:00:29;;;;;;;8.55;2.92;;;19.30;91.80;;;;;;4264402;27;20062;-74
2021/07/31 05:02:33;;;;;;;12.68;2.55;;;19.40;91.60;;;;;;4264378;27;20063;-74
2021/07/31 05:04:36;;;;;;;10.25;2.80;;;19.40;91.60;;;;;;4264309;27;20050;-75
2021/07/31 05:06:39;;;;;;;13.82;3.35;;;19.40;91.80;;;;;;4264176;27;20526;-74
2021/07/31 05:08:42;;;;;;;13.95;3.22;;;19.40;91.70;;;;;;4264143;27;20528;-74
2021/07/31 05:10:47;;;;;;;11.40;2.75;;;19.40;91.80;;;;;;4264154;27;20055;-74
2021/07/31 05:12:51;;;;;;;11.27;2.92;;;19.40;91.80;;;;;;4263736;27;20054;-73
2021/07/31 05:14:54;;;;;;;9.02;2.67;;;19.30;92.40;;;;;;4264116;27;20057;-73
2021/07/31 05:16:58;;;;;;;9.63;2.90;;;19.30;92.20;;;;;;4263799;27;20046;-76
2021/07/31 05:19:01;;;;;;;15.75;4.07;;;19.20;92.20;;;;;;4263871;27;20054;-74
2021/07/31 05:21:07;;;;;;;12.73;2.88;;;19.30;92.20;;;;;;4264118;27;20057;-73
2021/07/31 05:23:10;;;;;;;7.68;2.67;;;19.30;92.40;;;;;;4263739;27;20051;-75
2021/07/31 05:25:14;;;;;;;7.82;2.80;;;19.40;91.90;;;;;;4263707;27;20166;-75
2021/07/31 05:27:17;;;;;;;11.60;3.50;;;19.30;92.50;;;;;;4263798;27;20438;-74
2021/07/31 05:29:21;;;;;;;13.85;3.53;;;19.40;92.40;;;;;;4263880;27;20055;-75
2021/07/31 05:31:24;;;;;;;7.70;2.80;;;19.40;92.40;;;;;;4263635;27;20057;-74
2021/07/31 05:33:27;;;;;;;11.32;2.88;;;19.40;92.10;;;;;;4263508;27;20058;-75
2021/07/31 05:35:30;;;;;;;11.70;3.30;;;19.50;92.10;;;;;;4263575;27;20064;-75
2021/07/31 05:37:33;;;;;;;12.50;3.15;;;19.50;92.20;;;;;;4263565;27;20051;-75
2021/07/31 05:39:37;;;;;;;8.32;3.03;;;19.50;91.90;;;;;;4263760;27;20046;-74
2021/07/31 05:41:40;;;;;;;14.55;3.15;;;19.50;92.10;;;;;;4263540;27;20073;-75
2021/07/31 05:43:44;;;;;;;9.90;4.00;;;19.60;92.00;;;;;;4263516;27;20058;-75
2021/07/31 05:45:48;;;;;;;10.82;3.28;;;19.50;92.00;;;;;;4263466;27;20061;-75
2021/07/31 05:47:52;;;;;;;13.07;3.13;;;19.60;91.90;;;;;;4263689;27;20055;-75
2021/07/31 05:49:55;;;;;;;8.48;2.78;;;19.60;91.80;;;;;;4263434;27;20062;-74
2021/07/31 05:51:58;;;;;;;9.93;3.20;;;19.50;92.30;;;;;;4263288;27;20080;-74
2021/07/31 05:54:01;;;;;;;10.10;3.00;;;19.50;92.60;;;;;;4263260;27;20051;-74
2021/07/31 05:56:06;;;;;;;14.38;3.70;;;19.40;92.40;;;;;;4263368;27;20061;-74
2021/07/31 05:58:09;;;;;;;;;;;19.40;92.60;;;;;;4262541;27;20047;-75
2021/07/31 06:00:13;;;;;;;12.57;3.53;;;19.50;92.40;;;;;;4262972;27;19919;-74
2021/07/31 06:02:18;;;;;;;14.37;3.10;;;19.40;93.10;;;;;;4263556;27;20619;-75
2021/07/31 06:04:21;;;;;;;;;;;19.50;92.40;;;;;;4263895;27;20059;-74
2021/07/31 06:06:23;;;;;;;13.13;3.17;;;19.60;92.20;;;;;;4263260;27;19919;-74
2021/07/31 06:08:27;;;;;;;12.93;3.00;;;19.60;92.20;;;;;;4263516;27;20401;-74
2021/07/31 06:10:30;;;;;;;14.57;3.42;;;19.60;92.60;;;;;;4262023;27;20430;-74
2021/07/31 06:12:33;;;;;;;14.15;3.60;;;19.50;92.90;;;;;;4263007;27;20054;-74
2021/07/31 06:14:39;;;;;;;8.38;3.17;;;19.40;93.30;;;;;;4263186;27;20058;-74
2021/07/31 06:16:42;;;;;;;15.38;3.95;;;19.30;93.30;;;;;;4263048;27;20058;-74
2021/07/31 06:18:47;;;;;;;10.52;3.13;;;19.20;93.60;;;;;;4262846;27;20061;-74
2021/07/31 06:20:50;;;;;;;10.32;3.22;;;19.30;93.30;;;;;;4263145;27;20061;-74
2021/07/31 06:22:53;;;;;;;11.68;3.05;;;19.40;93.00;;;;;;4263170;27;20395;-74
2021/07/31 06:24:56;;;;;;;8.15;2.90;;;19.60;92.60;;;;;;4263131;27;20516;-74
2021/07/31 06:26:59;;;;;;;11.68;3.53;;;19.70;92.50;;;;;;4262971;27;20131;-74
2021/07/31 06:29:02;;;;;;;15.10;3.42;;;19.70;92.30;;;;;;4262943;27;20047;-74
2021/07/31 06:31:07;;;;;;;16.80;3.80;;;19.80;92.50;;;;;;4263123;27;20055;-75
2021/07/31 06:33:10;;;;;;;9.25;3.22;;;19.70;92.50;;;;;;4263096;27;20054;-75
2021/07/31 06:35:15;;;;;;;10.57;2.75;;;19.70;92.40;;;;;;4263113;27;20058;-74
2021/07/31 06:37:18;;;;;;;11.55;3.53;;;19.80;93.00;;;;;;4263035;27;20055;-74
2021/07/31 06:39:21;;;;;;;13.18;3.78;;;19.70;92.90;;;;;;4263062;27;20410;-74
2021/07/31 06:41:24;;;;;;;11.13;3.10;;;19.70;93.30;;;;;;4262919;27;20047;-74
2021/07/31 06:43:27;;;;;;;10.55;3.22;;;19.70;92.90;;;;;;4263026;27;20084;-74
2021/07/31 06:45:30;;;;;;;10.60;2.88;;;19.70;92.80;;;;;;4262880;27;20414;-74
2021/07/31 06:47:34;;;;;;;16.77;3.88;;;19.70;93.10;;;;;;4262893;27;20504;-74
2021/07/31 06:49:37;;;;;;;12.75;3.00;;;19.70;92.80;;;;;;4263025;27;20051;-74
2021/07/31 06:51:42;;;;;;;12.30;3.40;;;19.80;93.00;;;;;;4262908;27;20055;-74
2021/07/31 06:53:45;;;;;;;10.93;2.90;;;19.80;92.60;;;;;;4262537;27;20054;-74
2021/07/31 06:55:48;;;;;;;12.70;3.28;;;19.90;92.50;;;;;;4262745;27;20065;-74
2021/07/31 06:57:51;;;;;;;11.82;3.20;;;19.70;92.70;;;;;;4262823;27;20060;-74
2021/07/31 06:59:54;;;;;;;11.02;3.50;;;19.70;93.00;;;;;;4262547;27;20059;-74
2021/07/31 07:01:57;;;;;;;14.00;3.42;;;19.80;92.80;;;;;;4262512;27;20516;-74
2021/07/31 07:04:00;;;;;;;10.05;3.05;;;19.90;92.50;;;;;;4262667;27;20055;-74
2021/07/31 07:06:04;;;;;;;9.95;3.25;;;19.80;92.50;;;;;;4262736;27;20399;-74
2021/07/31 07:08:08;;;;;;;11.75;2.78;;;20.00;92.40;;;;;;4262899;27;20057;-74
2021/07/31 07:10:12;;;;;;;7.65;2.58;;;20.10;92.10;;;;;;4262805;27;20059;-75
2021/07/31 07:12:15;;;;;;;10.23;2.78;;;20.20;92.00;;;;;;4262859;27;20050;-74
2021/07/31 07:14:18;;;;;;;14.68;2.95;;;20.10;92.20;;;;;;4265859;27;20055;-74
2021/07/31 07:16:21;;;;;;;8.27;3.05;;;20.00;92.30;;;;;;4265903;27;20089;-74
2021/07/31 07:18:24;;;;;;;8.85;2.88;;;19.90;92.50;;;;;;4265982;27;20046;-74
2021/07/31 07:20:27;;;;;;;11.45;3.35;;;20.10;92.50;;;;;;4265664;27;20099;-74
2021/07/31 07:22:30;;;;;;;9.05;2.95;;;20.30;92.10;;;;;;4265992;27;20050;-74
2021/07/31 07:24:36;;;;;;;15.75;3.95;;;20.40;91.90;;;;;;4265844;27;20039;-74
2021/07/31 07:26:38;;;;;;;11.15;3.05;;;20.40;91.90;;;;;;4265895;27;20057;-74
2021/07/31 07:28:41;;;;;;;11.85;3.28;;;20.40;92.10;;;;;;4265923;27;20061;-74
2021/07/31 07:30:45;;;;;;;9.43;3.05;;;20.40;92.00;;;;;;4265477;27;20053;-74
2021/07/31 07:32:49;;;;;;;10.68;2.92;;;20.40;92.10;;;;;;4265656;27;20054;-74
2021/07/31 07:34:52;;;;;;;7.40;2.67;;;20.40;91.70;;;;;;4265687;27;20401;-74
2021/07/31 07:36:55;;;;;;;10.07;2.53;;;20.50;91.60;;;;;;4265825;27;20061;-74
2021/07/31 07:38:58;;;;;;;8.35;2.33;;;20.60;91.30;;;;;;4265426;27;20085;-74
2021/07/31 07:41:05;;;;;;;10.82;3.28;;;20.80;91.10;;;;;;4265765;27;20646;-74
2021/07/31 07:43:08;;;;;;;8.07;2.85;;;20.90;91.10;;;;;;4265364;27;20054;-74
2021/07/31 07:45:11;;;;;;;7.82;2.60;;;20.90;91.20;;;;;;4265395;27;20066;-74
2021/07/31 07:47:14;;;;;;;8.80;2.92;;;21.00;90.60;;;;;;4265570;27;20060;-74
2021/07/31 07:49:17;;;;;;;11.23;2.95;;;21.10;90.30;;;;;;4265720;27;20512;-74
2021/07/31 07:51:20;;;;;;;11.52;2.67;;;21.20;90.20;;;;;;4265576;27;20050;-74
2021/07/31 07:53:23;;;;;;;6.60;2.50;;;21.20;90.00;;;;;;4265601;27;20053;-74
2021/07/31 07:55:26;;;;;;;6.95;2.55;;;21.00;90.10;;;;;;4265189;27;20417;-74
2021/07/31 07:57:30;;;;;;;7.85;2.55;;;21.10;90.20;;;;;;4265328;27;20057;-75
2021/07/31 07:59:34;;;;;;;;;;;21.20;90.10;;;;;;4264546;27;20590;-74
2021/07/31 08:01:37;;;;;;;10.00;2.83;;;21.20;90.00;;;;;;4265202;27;19929;-73
2021/07/31 08:03:41;;;;;;;7.80;2.92;;;21.20;90.10;;;;;;4265406;27;20047;-74
2021/07/31 08:05:44;;;;;;;7.95;2.58;;;21.30;89.90;;;;;;4265482;27;20057;-74
2021/07/31 08:07:47;;;;;;;12.48;2.67;;;21.30;89.90;;;;;;4265125;27;20055;-74
2021/07/31 08:09:50;;;;;;;9.45;2.85;;;21.50;90.00;;;;;;4265550;27;20500;-74
2021/07/31 08:11:53;;;;;;;10.55;3.20;;;21.50;89.80;;;;;;4265128;27;20057;-74
2021/07/31 08:13:58;;;;;;;6.50;2.55;;;21.60;90.30;;;;;;4265292;27;20522;-74
2021/07/31 08:16:01;;;;;;;10.02;2.60;;;21.80;90.10;;;;;;4264264;27;20046;-74
2021/07/31 08:18:04;;;;;;;6.25;2.50;;;21.90;89.80;;;;;;4265167;27;20070;-74
2021/07/31 08:20:08;;;;;;;6.28;2.47;;;21.90;87.80;;;;;;4263654;27;20061;-74
2021/07/31 08:22:11;;;;;;;9.07;2.70;;;21.90;87.80;;;;;;4264975;27;20050;-74
2021/07/31 08:24:16;;;;;;;7.72;2.67;;;22.00;87.60;;;;;;4264391;27;20059;-74
2021/07/31 08:26:19;;;;;;;11.63;2.60;;;22.00;87.90;;;;;;4264892;27;20065;-74
2021/07/31 08:28:22;;;;;;;9.60;2.63;;;22.20;87.00;;;;;;4265113;27;20402;-74
2021/07/31 08:30:26;;;;;;;9.95;2.50;;;22.20;87.20;;;;;;4264922;27;20069;-73
2021/07/31 08:32:29;;;;;;;8.85;2.60;;;22.20;87.30;;;;;;4264983;27;20043;-74
2021/07/31 08:34:33;;;;;;;13.20;2.92;;;22.30;88.40;;;;;;4264720;27;20070;-74
2021/07/31 08:36:36;;;;;;;8.82;2.60;;;22.40;87.80;;;;;;4264901;27;20482;-74
2021/07/31 08:38:39;;;;;;;6.22;2.38;;;22.20;86.80;;;;;;4264501;27;20054;-74
2021/07/31 08:40:43;;;;;;;7.13;2.45;;;22.00;84.40;;;;;;4264628;27;20051;-74
2021/07/31 08:42:46;;;;;;;7.97;2.87;;;22.10;85.70;;;;;;4264790;27;20057;-74
2021/07/31 08:44:49;;;;;;;8.35;2.70;;;22.20;85.70;;;;;;4264489;27;20055;-74
2021/07/31 08:46:54;;;;;;;7.03;2.97;;;22.00;86.10;;;;;;4264560;27;20059;-74
2021/07/31 08:48:57;;;;;;;;;;;22.00;86.80;;;;;;4264978;27;20057;-74
2021/07/31 08:51:02;;;;;;;10.18;2.58;;;22.20;86.70;;;;;;4264420;27;19926;-74
2021/07/31 08:53:05;;;;;;;6.10;2.00;;;22.40;86.50;;;;;;4264473;27;20054;-74
2021/07/31 08:55:09;;;;;;;8.82;2.55;;;22.60;85.80;;;;;;4264465;27;20512;-74
2021/07/31 08:57:12;;;;;;;10.80;2.55;;;22.70;85.50;;;;;;4264518;27;20062;-80
2021/07/31 08:59:15;;;;;;;9.25;2.20;;;22.80;84.00;;;;;;4260744;27;20054;-71
2021/07/31 09:01:18;;;;;;;8.90;2.28;;;22.80;84.30;;;;;;4244550;27;20048;-73
2021/07/31 09:03:23;;;;;;;12.40;2.63;;;22.90;84.00;;;;;;4264016;27;20043;-73
2021/07/31 09:05:31;;;;;;;9.88;2.80;;;22.90;83.90;;;;;;4264163;27;20402;-73
2021/07/31 09:07:34;;;;;;;6.70;2.28;;;23.00;84.20;;;;;;4263997;27;20051;-74
2021/07/31 09:09:38;;;;;;;8.57;2.38;;;22.90;83.80;;;;;;4264360;27;20057;-74
2021/07/31 09:11:59;;;;;;;6.45;2.28;;;22.80;83.10;;;;;;4263932;27;20061;-74
2021/07/31 09:14:09;;;;;;;7.32;1.92;;;22.80;83.10;;;;;;4263771;27;20055;-74
2021/07/31 09:16:13;;;;;;;9.73;2.60;;;22.90;83.60;;;;;;4264752;27;20505;-73
2021/07/31 09:18:25;;;;;;;8.38;2.22;;;23.00;83.50;;;;;;4263634;27;20054;-74
2021/07/31 09:20:28;;;;;;;9.60;2.72;;;23.10;83.10;;;;;;4245315;27;20197;-76
2021/07/31 09:22:31;;;;;;;10.13;2.15;;;23.00;82.30;;;;;;4257841;27;20061;-78
2021/07/31 09:24:35;;;;;;;10.63;2.85;;;23.10;83.30;;;;;;4255694;27;20051;-73
2021/07/31 09:26:44;;;;;;;6.28;2.38;;;22.90;82.40;;;;;;4246882;27;20059;-73
2021/07/31 09:28:59;;;;;;;9.52;2.40;;;22.90;82.90;;;;;;4246572;27;20047;-76
2021/07/31 09:31:02;;;;;;;7.60;2.53;;;22.80;83.20;;;;;;4246774;27;20069;-76
2021/07/31 09:33:06;;;;;;;9.45;2.30;;;22.70;83.80;;;;;;4246925;27;20445;-74
2021/07/31 09:35:21;;;;;;;7.60;2.00;;;22.70;83.50;;;;;;4245911;27;20055;-74
2021/07/31 09:37:24;;;;;;;7.68;2.50;;;22.80;83.50;;;;;;4228104;28;20052;-72
2021/07/31 09:39:47;;;;;;;9.27;2.45;;;22.80;81.40;;;;;;4246745;27;20059;-74
2021/07/31 09:41:52;;;;;;;6.35;2.10;;;22.90;81.20;;;;;;4246779;27;20059;-73
2021/07/31 09:44:05;;;;;;;;;;;22.90;81.20;;;;;;4246780;27;20418;-73
2021/07/31 09:46:31;;;;;;;6.13;2.13;;;22.90;81.60;;;;;;4247062;27;19919;-73
2021/07/31 09:48:57;;;;;;;7.30;2.00;;;23.00;81.80;;;;;;4249048;27;20384;-73
2021/07/31 09:51:01;;;;;;;6.50;2.05;;;23.00;79.70;;;;;;4246636;27;20039;-76
2021/07/31 09:53:12;;;;;;;4.57;1.67;;;23.10;80.00;;;;;;4246761;27;20051;-72
2021/07/31 09:55:21;;;;;;;4.78;1.80;;;23.00;79.80;;;;;;4245867;27;20055;-74
2021/07/31 09:57:26;;;;;;;5.70;1.90;;;23.20;79.90;;;;;;4246103;27;20063;-76
2021/07/31 09:59:29;;;;;;;;;;;23.20;80.20;;;;;;4246527;27;20055;-75
2021/07/31 10:01:35;;;;;;;7.40;2.10;;;23.30;80.10;;;;;;4246069;27;19953;-74
2021/07/31 10:03:39;;;;;;;6.72;2.55;;;23.30;79.90;;;;;;4246330;27;20057;-77
2021/07/31 10:05:44;;;;;;;7.78;2.45;;;23.20;80.20;;;;;;4246537;27;20049;-74
2021/07/31 10:08:10;;;;;;;6.30;1.90;;;23.30;80.40;;;;;;4246183;27;20095;-76
2021/07/31 10:10:17;;;;;;;7.82;2.15;;;23.20;79.40;;;;;;4247780;27;20055;-77
2021/07/31 10:12:24;;;;;;;10.00;1.95;;;23.10;80.40;;;;;;4246738;27;20055;-76
2021/07/31 10:14:27;;;;;;;10.52;1.95;;;23.20;80.30;;;;;;4228957;28;20060;-80
2021/07/31 10:16:32;;;;;;;5.82;2.10;;;23.30;79.50;;;;;;4247202;27;20055;-81
2021/07/31 10:18:35;;;;;;;;;;;23.40;79.40;;;;;;4232504;28;20712;-83
2021/07/31 10:20:39;;;;;;;8.88;1.85;;;23.40;79.00;;;;;;4247000;27;20410;-72
2021/07/31 10:22:45;;;;;;;10.60;2.28;;;23.30;79.50;;;;;;4246590;27;20051;-78
2021/07/31 10:25:06;;;;;;;4.70;1.98;;;23.40;79.90;;;;;;4247064;27;20057;-75
2021/07/31 10:27:21;;;;;;;6.47;2.00;;;23.60;79.10;;;;;;4246669;28;20055;-79
2021/07/31 10:29:40;;;;;;;3.17;1.52;;;23.80;78.60;;;;;;4246717;28;20053;-73
2021/07/31 10:31:44;;;;;;;4.25;2.20;;;24.00;78.70;;;;;;4244903;27;20052;-73
2021/07/31 10:33:47;;;;;;;5.50;1.98;;;24.00;78.60;;;;;;4263508;27;20047;-72
2021/07/31 10:35:50;;;;;;;6.85;1.98;;;24.10;76.80;;;;;;4245799;27;20376;-72
2021/07/31 10:37:55;;;;;;;5.78;2.03;;;24.20;77.30;;;;;;4268389;27;20051;-72
2021/07/31 10:39:58;;;;;;;;;;;24.30;77.90;;;;;;4271468;27;20118;-75
2021/07/31 10:42:03;;;;;;;4.35;1.73;;;24.40;78.40;;;;;;4272353;27;19915;-73
2021/07/31 10:44:09;;;;;;;5.53;1.80;;;24.40;76.50;;;;;;4272462;27;20122;-73
2021/07/31 10:46:24;;;;;;;12.02;2.00;;;24.30;75.00;;;;;;4271276;27;20112;-72